Time;durP1;ratioP1;P1;durP2;ratioP2;P2;SDS_P1;SDS_P2;PMS_P1;PMS_P2;Temp;Humidity;BMP_temperature;BMP_pressure;BME280_temperature;BME280_humidity;BME280_pressure;Samples;Min_cycle;Max_cycle;Signal;HPM_P1;HPM_P2
2021/03/05 00:02:08;;;;;;;11.48;2.12;;;;;;;7.63;56.86;102129.00;4471824;26;20111;-74
2021/03/05 00:04:33;;;;;;;19.37;2.70;;;;;;;7.66;57.08;102133.84;4401969;32;20409;-75
2021/03/05 00:06:59;;;;;;;13.30;2.08;;;;;;;7.64;57.22;102133.41;4406960;32;20533;-74
2021/03/05 00:09:25;;;;;;;13.82;2.83;;;;;;;7.65;57.33;102131.44;4405550;32;20081;-74
2021/03/05 00:11:51;;;;;;;19.35;2.72;;;;;;;7.64;57.11;102141.03;4412163;32;20090;-74
2021/03/05 00:14:16;;;;;;;11.00;2.30;;;;;;;7.69;56.94;102132.25;4418178;32;20098;-74
2021/03/05 00:16:42;;;;;;;13.82;1.73;;;;;;;7.69;56.83;102135.06;4417987;32;20455;-74
2021/03/05 00:19:08;;;;;;;13.98;2.22;;;;;;;7.68;56.15;102130.66;4415130;32;20046;-74
2021/03/05 00:21:34;;;;;;;21.40;2.60;;;;;;;7.70;56.32;102134.69;4406051;32;20395;-74
2021/03/05 00:23:59;;;;;;;13.82;2.17;;;;;;;7.64;55.99;102141.81;4404393;32;20046;-74
2021/03/05 00:26:25;;;;;;;12.32;1.80;;;;;;;7.64;55.85;102146.62;4405141;32;20079;-74
2021/03/05 00:28:51;;;;;;;11.68;1.90;;;;;;;7.70;56.08;102140.28;4405952;32;20097;-75
2021/03/05 00:31:17;;;;;;;16.17;2.17;;;;;;;7.64;55.88;102146.62;4404923;32;20038;-74
2021/03/05 00:33:42;;;;;;;18.20;3.22;;;;;;;7.70;55.80;102150.72;4391244;32;20111;-74
2021/03/05 00:36:08;;;;;;;12.82;2.50;;;;;;;7.62;55.94;102163.03;4405229;32;20045;-74
2021/03/05 00:38:34;;;;;;;14.00;2.12;;;;;;;7.65;56.21;102160.25;4403922;32;20046;-75
2021/03/05 00:40:59;;;;;;;11.77;2.33;;;;;;;7.70;56.04;102157.09;4404505;32;20022;-75
2021/03/05 00:43:25;;;;;;;11.85;2.20;;;;;;;7.67;55.44;102163.47;4418621;32;20528;-75
2021/03/05 00:45:52;;;;;;;11.45;1.90;;;;;;;7.67;55.83;102162.69;4399675;32;20046;-75
2021/03/05 00:48:17;;;;;;;7.55;1.73;;;;;;;7.70;55.57;102165.50;4391839;32;20423;-75
2021/03/05 00:50:43;;;;;;;13.93;2.17;;;;;;;7.72;55.71;102167.91;4404532;32;20113;-74
2021/03/05 00:53:09;;;;;;;8.82;1.60;;;;;;;7.67;55.54;102162.69;4390681;32;20058;-74
2021/03/05 00:55:35;;;;;;;16.40;2.67;;;;;;;7.69;55.32;102166.69;4399013;32;20430;-74
2021/03/05 00:58:01;;;;;;;12.73;2.70;;;;;;;7.69;55.37;102161.09;4405218;32;20095;-75
2021/03/05 01:00:27;;;;;;;12.23;2.37;;;;;;;7.67;55.51;102157.09;4404858;32;20468;-75
2021/03/05 01:02:53;;;;;;;13.48;2.40;;;;;;;7.71;55.33;102155.91;4404672;32;20081;-75
2021/03/05 01:05:19;;;;;;;11.50;2.20;;;;;;;7.72;55.39;102165.13;4405751;32;20478;-75
2021/03/05 01:07:46;;;;;;;9.68;2.62;;;;;;;7.68;55.00;102164.28;4389706;32;20522;-75
2021/03/05 01:10:13;;;;;;;10.45;1.90;;;;;;;7.74;54.94;102162.75;4405920;32;20101;-75
2021/03/05 01:12:39;;;;;;;15.32;2.08;;;;;;;7.61;54.67;102159.41;4406449;32;20077;-76
2021/03/05 01:15:07;;;;;;;13.80;2.28;;;;;;;7.62;54.62;102163.84;4408904;32;20422;-74
2021/03/05 01:17:32;;;;;;;15.68;2.37;;;;;;;7.65;54.46;102159.44;4420923;32;20038;-75
2021/03/05 01:19:58;;;;;;;11.80;1.87;;;;;;;7.71;54.54;102174.72;4418716;32;20029;-75
2021/03/05 01:22:24;;;;;;;7.00;1.73;;;;;;;7.75;54.29;102175.56;4404130;32;20034;-75
2021/03/05 01:24:50;;;;;;;5.55;2.03;;;;;;;7.75;54.68;102161.53;4405096;32;20417;-75
2021/03/05 01:27:15;;;;;;;11.48;1.90;;;;;;;7.80;54.60;102172.41;4404259;32;20069;-76
2021/03/05 01:29:41;;;;;;;9.80;1.58;;;;;;;7.81;54.07;102174.84;4405261;32;20076;-75
2021/03/05 01:32:07;;;;;;;12.00;1.92;;;;;;;7.78;54.21;102170.00;4403948;32;20034;-75
2021/03/05 01:34:33;;;;;;;10.80;1.70;;;;;;;7.73;54.06;102173.13;4405439;32;20531;-75
2021/03/05 01:36:58;;;;;;;16.25;1.92;;;;;;;7.70;53.76;102171.09;4405617;32;20042;-74
2021/03/05 01:39:24;;;;;;;5.78;1.90;;;;;;;7.66;53.96;102175.87;4402958;32;20074;-75
2021/03/05 01:41:50;;;;;;;10.02;1.80;;;;;;;7.65;54.31;102173.47;4413693;32;20131;-78
2021/03/05 01:44:15;;;;;;;6.25;1.60;;;;;;;7.69;54.10;102171.50;4420548;32;20408;-75
2021/03/05 01:46:41;;;;;;;14.80;1.40;;;;;;;7.62;53.74;102172.25;4409998;32;20110;-75
2021/03/05 01:49:10;;;;;;;6.97;1.37;;;;;;;7.59;53.50;102177.78;4404536;32;20038;-74
2021/03/05 01:51:37;;;;;;;10.52;1.73;;;;;;;7.62;53.85;102166.63;4405145;32;20038;-76
2021/03/05 01:54:05;;;;;;;9.57;1.42;;;;;;;7.51;53.71;102185.31;4403781;32;20488;-74
2021/03/05 01:59:18;;;;;;;10.40;1.55;;;;;;;8.04;53.13;102194.28;3996448;32;15074303;-75
2021/03/05 02:01:43;;;;;;;11.30;1.50;;;;;;;8.04;53.13;102194.28;4443407;32;20434;-75
2021/03/05 02:04:11;;;;;;;8.60;1.45;;;;;;;7.63;53.43;102192.63;4424945;32;20042;-76
2021/03/05 02:06:38;;;;;;;5.57;1.33;;;;;;;7.57;53.14;102191.38;4433413;32;20088;-75
2021/03/05 02:09:05;;;;;;;6.20;1.12;;;;;;;7.57;53.18;102191.38;4432683;32;20034;-75
2021/03/05 02:11:31;;;;;;;12.10;1.62;;;;;;;7.54;53.35;102192.94;4432773;32;20075;-76
2021/03/05 02:14:00;;;;;;;6.87;1.05;;;;;;;7.57;53.55;102191.38;4433787;32;20096;-76
2021/03/05 02:23:00;;;;;;;13.60;1.60;;;;;;;7.77;52.91;102193.59;3999231;32;15023505;-76
2021/03/05 02:29:05;;;;;;;12.40;1.30;;;;;;;8.12;52.48;102193.13;3997596;32;15028201;-75
2021/03/05 02:31:55;;;;;;;9.47;2.20;;;;;;;8.12;52.48;102193.13;4439271;32;20037;-75
2021/03/05 02:37:06;;;;;;;8.70;1.45;;;;;;;8.09;52.46;102183.50;3976421;32;15723430;-76
2021/03/05 02:42:13;;;;;;;9.35;1.30;;;;;;;8.06;51.70;102186.28;3962609;32;15722569;-73
2021/03/05 02:44:44;;;;;;;4.57;1.02;;;;;;;8.06;51.70;102186.28;4432733;32;20404;-72
2021/03/05 02:47:16;;;;;;;7.28;1.05;;;;;;;7.59;52.03;102186.19;4432276;32;20608;-72
2021/03/05 02:49:44;;;;;;;7.18;1.08;;;;;;;7.62;51.88;102186.25;4433718;32;20085;-72
2021/03/05 02:52:16;;;;;;;6.30;1.17;;;;;;;7.52;51.91;102191.72;4432412;32;20042;-73
2021/03/05 02:54:44;;;;;;;8.15;0.98;;;;;;;7.54;52.20;102190.16;4434160;32;20409;-72
2021/03/05 02:57:14;;;;;;;10.43;1.20;;;;;;;7.50;52.96;102188.50;4440962;32;20059;-73
2021/03/05 02:59:42;;;;;;;8.52;1.70;;;;;;;7.49;52.43;102190.47;4436843;32;20030;-73
2021/03/05 03:02:10;;;;;;;12.13;1.33;;;;;;;7.43;52.50;102199.63;4432739;32;20041;-73
2021/03/05 03:04:41;;;;;;;6.35;1.00;;;;;;;7.31;52.68;102197.88;4432342;32;20029;-75
2021/03/05 03:07:09;;;;;;;6.40;0.95;;;;;;;7.41;52.57;102199.19;4432627;32;20342;-75
2021/03/05 03:09:36;;;;;;;11.88;1.83;;;;;;;7.39;52.63;102198.75;4413937;32;20390;-75
2021/03/05 03:12:03;;;;;;;15.32;1.40;;;;;;;7.36;52.89;102203.13;4427134;32;20454;-74
2021/03/05 03:14:29;;;;;;;12.70;1.40;;;;;;;7.32;53.50;102204.28;4431208;32;20029;-75
2021/03/05 03:16:56;;;;;;;9.73;1.67;;;;;;;7.30;53.55;102198.28;4421997;32;20074;-74
2021/03/05 03:19:24;;;;;;;10.70;1.45;;;;;;;7.18;53.35;102201.31;4418956;32;20084;-76
2021/03/05 03:21:51;;;;;;;7.62;1.35;;;;;;;7.22;53.86;102202.97;4433287;32;20026;-75
2021/03/05 03:24:17;;;;;;;6.43;1.08;;;;;;;7.23;54.11;102209.34;4431538;32;20033;-75
2021/03/05 03:26:43;;;;;;;10.23;1.70;;;;;;;7.20;54.16;102201.72;4431369;32;20087;-75
2021/03/05 03:29:09;;;;;;;11.02;1.50;;;;;;;7.18;54.87;102212.50;4421454;32;20374;-74
2021/03/05 03:31:38;;;;;;;13.02;1.75;;;;;;;7.11;55.50;102206.78;4429377;32;20026;-76
2021/03/05 03:34:05;;;;;;;10.95;1.30;;;;;;;7.07;55.51;102208.75;4428602;32;20030;-74
2021/03/05 03:36:36;;;;;;;9.50;1.23;;;;;;;7.17;55.38;102213.69;4418510;32;20364;-74
2021/03/05 03:39:04;;;;;;;9.13;1.30;;;;;;;7.08;55.71;102205.56;4417195;32;20069;-75
2021/03/05 03:41:30;;;;;;;7.22;0.90;;;;;;;6.96;55.97;102214.19;4416956;32;20108;-75
2021/03/05 03:43:56;;;;;;;11.63;1.50;;;;;;;7.09;56.10;102217.59;4415858;32;20060;-75
2021/03/05 03:46:21;;;;;;;7.70;1.77;;;;;;;7.06;56.39;102221.16;4431345;32;20140;-74
2021/03/05 03:48:56;;;;;;;14.00;1.73;;;;;;;7.09;56.50;102220.37;4432389;32;20041;-75
2021/03/05 03:51:26;;;;;;;9.05;1.55;;;;;;;7.14;56.41;102215.25;4430327;32;20075;-74
2021/03/05 03:53:54;;;;;;;9.07;1.60;;;;;;;7.21;56.75;102217.34;4412656;32;20640;-75
2021/03/05 03:56:22;;;;;;;11.98;1.95;;;;;;;7.20;56.35;102205.34;4409312;32;20398;-75
2021/03/05 03:58:50;;;;;;;9.05;1.30;;;;;;;7.35;56.47;102212.72;4421347;32;20110;-75
2021/03/05 04:01:17;;;;;;;8.13;1.58;;;;;;;7.29;56.41;102208.66;4421018;32;20079;-74
2021/03/05 04:03:46;;;;;;;7.70;1.35;;;;;;;7.27;57.00;102215.84;4409640;32;20018;-74
2021/03/05 04:06:12;;;;;;;5.00;1.02;;;;;;;7.25;57.37;102219.00;4408598;32;20053;-75
2021/03/05 04:08:41;;;;;;;7.72;1.65;;;;;;;7.24;57.34;102216.59;4405909;32;20045;-75
2021/03/05 04:11:09;;;;;;;8.68;1.30;;;;;;;7.28;57.71;102212.66;4414455;32;20049;-75
2021/03/05 04:13:38;;;;;;;9.38;1.48;;;;;;;7.26;57.96;102225.41;4410848;32;20038;-75
2021/03/05 04:16:05;;;;;;;10.07;1.60;;;;;;;7.26;58.23;102222.59;4414003;32;20401;-75
2021/03/05 04:18:33;;;;;;;12.52;1.85;;;;;;;7.23;58.60;102228.97;4421077;32;20335;-75
2021/03/05 04:21:04;;;;;;;7.10;1.80;;;;;;;7.25;58.79;102223.78;4407149;32;20497;-75
2021/03/05 04:23:35;;;;;;;9.93;1.75;;;;;;;7.19;59.01;102228.12;4406058;32;20109;-75
2021/03/05 04:26:01;;;;;;;5.60;1.40;;;;;;;7.23;58.65;102229.78;4421613;32;20022;-75
2021/03/05 04:28:27;;;;;;;6.43;1.70;;;;;;;7.27;58.98;102235.44;4421229;32;20117;-75
2021/03/05 04:30:53;;;;;;;13.57;1.58;;;;;;;7.27;58.90;102233.41;4419785;32;20017;-74
2021/03/05 04:33:19;;;;;;;8.75;1.58;;;;;;;7.23;58.85;102232.56;4416765;32;20047;-75
2021/03/05 04:35:44;;;;;;;10.13;1.77;;;;;;;7.18;59.04;102230.09;4410555;32;20034;-75
2021/03/05 04:38:10;;;;;;;8.45;1.77;;;;;;;7.16;59.34;102248.47;4420746;32;20418;-74
2021/03/05 04:40:36;;;;;;;12.15;1.90;;;;;;;7.18;59.47;102235.69;4421362;32;20422;-76
2021/03/05 04:43:02;;;;;;;7.40;1.48;;;;;;;7.09;59.61;102237.19;4419148;32;20533;-75
2021/03/05 04:45:27;;;;;;;8.30;1.73;;;;;;;7.07;59.51;102247.94;4421530;32;20052;-75
2021/03/05 04:47:53;;;;;;;6.28;1.83;;;;;;;7.10;59.71;102245.19;4420421;32;20038;-75
2021/03/05 04:50:19;;;;;;;12.55;1.37;;;;;;;7.17;59.68;102244.47;4412401;32;20075;-75
2021/03/05 04:52:44;;;;;;;8.18;1.83;;;;;;;7.14;59.74;102250.84;4406291;32;20523;-75
2021/03/05 04:55:11;;;;;;;6.85;1.40;;;;;;;7.14;60.19;102251.66;4406399;32;20122;-75
2021/03/05 04:57:36;;;;;;;6.78;1.62;;;;;;;7.14;60.09;102260.03;4407829;32;20030;-75
2021/03/05 05:00:05;;;;;;;7.00;1.50;;;;;;;7.07;60.30;102257.16;4420547;32;20087;-76
2021/03/05 05:02:30;;;;;;;5.30;1.42;;;;;;;7.06;60.76;102255.53;4417717;32;20065;-76
2021/03/05 05:04:56;;;;;;;9.25;1.60;;;;;;;7.14;60.70;102251.66;4405346;32;20411;-75
2021/03/05 05:07:23;;;;;;;7.30;1.92;;;;;;;7.04;60.88;102254.28;4406392;32;20399;-75
2021/03/05 05:09:48;;;;;;;11.68;2.22;;;;;;;7.07;61.15;102259.12;4406299;32;20109;-76
2021/03/05 05:12:14;;;;;;;7.78;1.65;;;;;;;7.14;61.21;102264.81;4419921;32;20060;-76
2021/03/05 05:14:40;;;;;;;9.48;2.00;;;;;;;7.15;61.31;102264.44;4419833;32;20038;-76
2021/03/05 05:17:05;;;;;;;14.55;2.45;;;;;;;7.17;61.17;102270.50;4399874;32;20469;-76
2021/03/05 05:19:31;;;;;;;14.95;3.28;;;;;;;7.16;60.90;102263.28;4404327;32;20502;-75
2021/03/05 05:21:57;;;;;;;14.10;2.30;;;;;;;7.17;61.06;102272.47;4404066;32;20403;-76
2021/03/05 05:24:24;;;;;;;12.37;2.20;;;;;;;7.18;60.96;102268.50;4407398;32;20030;-76
2021/03/05 05:26:49;;;;;;;11.18;2.03;;;;;;;7.13;61.41;102266.84;4421063;32;20430;-75
2021/03/05 05:29:15;;;;;;;8.52;1.80;;;;;;;7.12;61.14;102268.00;4419654;32;20029;-76
2021/03/05 05:31:40;;;;;;;10.55;1.60;;;;;;;7.06;61.26;102272.31;4420748;32;20444;-76
2021/03/05 05:34:06;;;;;;;11.77;1.60;;;;;;;6.99;61.62;102282.59;4420966;32;20056;-75
2021/03/05 05:36:32;;;;;;;9.93;1.77;;;;;;;7.01;61.63;102281.06;4421322;32;20125;-74
2021/03/05 05:38:57;;;;;;;9.70;2.37;;;;;;;7.00;61.62;102282.22;4419621;32;20068;-75
2021/03/05 05:41:24;;;;;;;7.47;1.80;;;;;;;6.99;61.78;102286.22;4420028;32;20075;-75
2021/03/05 05:43:50;;;;;;;7.30;1.62;;;;;;;7.02;61.31;102281.84;4419121;32;20090;-76
2021/03/05 05:46:19;;;;;;;12.45;1.83;;;;;;;6.90;62.09;102282.88;4419342;32;20038;-75
2021/03/05 05:48:47;;;;;;;8.15;1.92;;;;;;;6.84;61.97;102280.78;4410726;32;20030;-74
2021/03/05 05:51:32;;;;;;;8.43;2.40;;;;;;;6.89;61.99;102280.44;4405422;32;20031;-75
2021/03/05 05:54:03;;;;;;;13.43;2.20;;;;;;;6.85;62.15;102277.63;4415342;32;20505;-74
2021/03/05 05:56:30;;;;;;;6.93;1.65;;;;;;;6.68;62.66;102272.53;4415606;32;20073;-74
2021/03/05 05:58:56;;;;;;;9.85;1.58;;;;;;;6.62;62.92;102281.59;4405546;32;20039;-74
2021/03/05 06:01:22;;;;;;;9.23;1.80;;;;;;;6.71;63.00;102282.16;4405243;32;20115;-75
2021/03/05 06:03:48;;;;;;;6.30;1.48;;;;;;;6.63;62.88;102288.84;4405651;32;20094;-72
2021/03/05 06:06:14;;;;;;;10.35;1.30;;;;;;;6.70;62.83;102288.94;4409461;32;20112;-73
2021/03/05 06:08:39;;;;;;;9.13;1.77;;;;;;;6.73;62.89;102291.81;4419241;32;20025;-74
2021/03/05 06:11:05;;;;;;;8.57;1.30;;;;;;;6.71;62.91;102284.94;4419490;32;20076;-74
2021/03/05 06:13:31;;;;;;;13.65;1.80;;;;;;;6.78;62.86;102294.28;4418250;32;20026;-73
2021/03/05 06:16:18;;;;;;;9.40;1.85;;;;;;;6.80;62.83;102289.12;4420145;32;20026;-73
2021/03/05 06:18:44;;;;;;;10.82;1.80;;;;;;;6.87;62.48;102286.44;4414545;32;20303;-73
2021/03/05 06:21:10;;;;;;;12.37;1.45;;;;;;;6.92;62.58;102293.69;4419106;32;20076;-73
2021/03/05 06:23:57;;;;;;;12.68;1.10;;;;;;;6.90;62.06;102284.88;4417632;32;20381;-73
2021/03/05 06:26:24;;;;;;;5.68;1.17;;;;;;;6.83;61.95;102288.38;4418774;32;20083;-73
2021/03/05 06:29:06;;;;;;;7.90;1.60;;;;;;;6.88;62.36;102290.84;4404665;32;20394;-73
2021/03/05 06:31:33;;;;;;;8.15;1.50;;;;;;;6.90;62.23;102294.06;4404381;32;20131;-72
2021/03/05 06:34:02;;;;;;;4.10;1.70;;;;;;;6.91;62.17;102297.69;4405219;32;20073;-73
2021/03/05 06:36:28;;;;;;;6.90;1.17;;;;;;;6.96;61.98;102295.38;4415344;32;20033;-74
2021/03/05 06:38:54;;;;;;;5.87;1.12;;;;;;;6.90;62.06;102298.88;4417812;32;20034;-73
2021/03/05 06:44:03;;;;;;;6.28;1.17;;;;;;;7.37;61.61;102313.19;4026304;31;15015184;-73
2021/03/05 06:49:07;;;;;;;11.00;1.40;;;;;;;6.89;62.09;102311.25;3997417;32;15024317;-74
2021/03/05 06:51:34;;;;;;;9.68;2.17;;;;;;;6.70;62.58;102319.72;4448964;32;20025;-74
2021/03/05 06:54:03;;;;;;;11.12;1.70;;;;;;;6.70;62.76;102311.31;4447055;32;20045;-77
2021/03/05 06:56:31;;;;;;;15.60;2.67;;;;;;;6.76;62.87;102318.22;4445064;32;20113;-76
2021/03/05 07:07:06;;;;;;;10.80;1.35;;;;;;;7.21;62.11;102318.94;4015589;31;15019776;-73
2021/03/05 07:09:37;;;;;;;13.60;2.90;;;;;;;6.79;62.93;102326.69;4472052;32;20021;-74
2021/03/05 07:12:09;;;;;;;9.52;1.58;;;;;;;6.86;62.90;102328.78;4476583;32;20063;-77
2021/03/05 07:14:37;;;;;;;6.97;1.87;;;;;;;6.86;62.71;102331.56;4465313;32;20059;-77
2021/03/05 07:17:04;;;;;;;9.55;2.00;;;;;;;6.88;62.75;102332.03;4464644;32;20063;-76
2021/03/05 07:19:32;;;;;;;5.95;2.08;;;;;;;6.89;62.90;102337.25;4462704;32;20417;-75
2021/03/05 07:21:58;;;;;;;13.07;2.80;;;;;;;6.99;62.47;102335.78;4465533;32;20063;-76
2021/03/05 07:24:26;;;;;;;6.45;1.48;;;;;;;7.00;62.58;102346.59;4470525;32;20502;-77
2021/03/05 07:27:02;;;;;;;9.15;1.65;;;;;;;6.97;62.11;102341.75;4468711;32;20128;-76
2021/03/05 07:29:33;;;;;;;3.70;1.25;;;;;;;7.06;62.20;102349.91;4477089;32;20088;-76
2021/03/05 07:32:01;;;;;;;5.85;1.52;;;;;;;6.88;62.21;102346.00;4470718;32;20053;-77
2021/03/05 07:34:30;;;;;;;14.23;2.42;;;;;;;7.08;61.98;102358.72;4462461;32;20018;-77
2021/03/05 07:36:58;;;;;;;6.35;1.73;;;;;;;7.15;61.97;102364.44;4478468;32;20033;-75
2021/03/05 07:39:27;;;;;;;9.57;2.17;;;;;;;7.20;61.77;102366.91;4470418;32;20479;-73
2021/03/05 07:41:54;;;;;;;10.10;1.95;;;;;;;7.30;61.96;102366.28;4462700;32;20044;-74
2021/03/05 07:44:21;;;;;;;8.13;2.05;;;;;;;7.34;61.61;102364.34;4464149;32;20021;-76
2021/03/05 07:46:47;;;;;;;7.15;2.22;;;;;;;7.40;61.62;102362.84;4474090;32;20100;-77
2021/03/05 07:49:14;;;;;;;6.35;1.85;;;;;;;7.50;61.10;102376.19;4477852;32;20077;-73
2021/03/05 07:51:41;;;;;;;11.02;2.25;;;;;;;7.63;61.22;102371.97;4473793;32;20041;-75
2021/03/05 07:54:07;;;;;;;9.15;1.83;;;;;;;7.69;60.48;102384.44;4463480;32;20451;-76
2021/03/05 07:56:42;;;;;;;6.90;1.75;;;;;;;7.73;60.34;102385.31;4461505;32;20406;-75
2021/03/05 07:59:09;;;;;;;8.85;2.60;;;;;;;7.79;60.08;102380.97;4463051;32;20084;-76
2021/03/05 08:07:29;;;;;;;7.57;2.42;;;;;;;7.98;59.34;102397.69;3982960;32;15025067;-75
2021/03/05 08:09:56;;;;;;;5.87;1.25;;;;;;;7.98;59.34;102397.69;4443364;32;20037;-77
2021/03/05 08:17:46;;;;;;;8.27;1.80;;;;;;;8.05;58.96;102404.19;4012959;31;15015649;-77
2021/03/05 08:25:48;;;;;;;8.15;2.28;;;;;;;8.17;59.47;102412.31;3996301;32;15023168;-75
2021/03/05 08:28:36;;;;;;;9.50;2.22;;;;;;;8.17;59.47;102412.31;4435235;32;20041;-77
2021/03/05 08:31:02;;;;;;;10.57;2.58;;;;;;;7.67;60.27;102403.66;4443526;32;20100;-77
2021/03/05 08:33:32;;;;;;;9.85;2.00;;;;;;;7.60;60.39;102403.53;4444827;32;20055;-77
2021/03/05 08:35:58;;;;;;;6.40;2.40;;;;;;;7.52;60.25;102405.44;4444811;32;20064;-78
2021/03/05 08:38:35;;;;;;;8.85;2.33;;;;;;;7.61;60.17;102407.97;4438429;32;20116;-79
2021/03/05 08:41:04;;;;;;;8.48;2.72;;;;;;;7.65;60.42;102404.03;4446249;32;20014;-78
2021/03/05 08:43:31;;;;;;;8.82;2.05;;;;;;;7.69;60.45;102415.28;4447778;32;20061;-77
2021/03/05 08:48:43;;;;;;;11.73;2.25;;;;;;;7.94;59.98;102413.63;3992136;32;15025124;-75
2021/03/05 08:53:53;;;;;;;16.12;2.92;;;;;;;8.56;57.99;102428.84;4013290;31;15021500;-79
2021/03/05 08:56:23;;;;;;;16.12;3.35;;;;;;;8.56;57.99;102428.84;4463136;32;20043;-74
2021/03/05 08:59:06;;;;;;;14.52;3.35;;;;;;;8.28;58.45;102434.13;4457587;32;20082;-75
2021/03/05 09:01:37;;;;;;;11.82;3.15;;;;;;;8.39;57.88;102426.63;4462813;32;20045;-74
2021/03/05 09:04:20;;;;;;;15.00;3.20;;;;;;;8.64;57.90;102425.72;4447814;32;20029;-74
2021/03/05 09:09:30;;;;;;;10.15;3.22;;;;;;;9.39;56.03;102440.06;3987825;32;15024709;-73
2021/03/05 09:12:21;;;;;;;13.65;2.40;;;;;;;9.39;56.03;102440.06;4445134;32;20060;-74
2021/03/05 09:14:57;;;;;;;13.27;2.95;;;;;;;9.02;55.93;102442.16;4443261;32;20033;-75
2021/03/05 09:17:24;;;;;;;7.37;2.60;;;;;;;9.01;55.78;102440.53;4441263;32;20055;-74
2021/03/05 09:19:50;;;;;;;13.70;2.37;;;;;;;9.09;56.19;102436.63;4437081;32;20122;-72
2021/03/05 09:25:00;;;;;;;14.30;2.62;;;;;;;9.34;55.98;102448.06;3997718;32;15028965;-74
2021/03/05 09:27:35;;;;;;;9.05;2.53;;;;;;;9.37;55.46;102441.66;4446083;32;20033;-74
2021/03/05 09:30:24;;;;;;;17.30;2.78;;;;;;;9.49;55.04;102450.59;4446020;32;20026;-73
2021/03/05 09:32:52;;;;;;;11.68;2.40;;;;;;;9.65;54.66;102456.75;4446018;32;20059;-76
2021/03/05 09:35:27;;;;;;;27.98;3.65;;;;;;;9.72;54.23;102456.78;4447303;32;20504;-76
2021/03/05 09:37:53;;;;;;;20.42;2.20;;;;;;;9.89;54.18;102463.72;4444223;32;20302;-76
2021/03/05 09:40:20;;;;;;;15.15;2.25;;;;;;;9.87;54.12;102464.13;4447744;32;20057;-75
2021/03/05 09:45:49;;;;;;;13.95;2.28;;;;;;;10.23;52.98;102464.34;3993566;32;15022332;-75
2021/03/05 09:48:31;;;;;;;15.80;2.62;;;;;;;10.24;52.88;102469.56;4435989;32;20052;-77
2021/03/05 09:51:00;;;;;;;32.50;3.33;;;;;;;10.24;52.72;102469.56;4433260;32;20046;-76
2021/03/05 09:56:06;;;;;;;14.07;2.67;;;;;;;11.13;50.21;102480.72;3993774;32;15025915;-76
2021/03/05 09:58:32;;;;;;;29.17;4.43;;;;;;;11.13;50.21;102480.72;4445722;32;20464;-78
2021/03/05 10:00:59;;;;;;;40.45;6.32;;;;;;;10.75;51.09;102480.63;4440091;32;20054;-75
2021/03/05 10:03:26;;;;;;;44.63;7.03;;;;;;;10.90;50.79;102473.81;4418521;32;20091;-73
2021/03/05 10:05:52;;;;;;;26.75;6.30;;;;;;;11.08;50.19;102480.31;4420486;32;20034;-74
2021/03/05 10:08:28;;;;;;;41.30;17.12;;;;;;;11.32;50.07;102471.09;4421622;32;20025;-74
2021/03/05 10:19:16;;;;;;;23.73;10.88;;;;;;;12.77;46.02;102475.16;4015832;31;15015054;-74
2021/03/05 10:21:48;;;;;;;33.88;16.33;;;;;;;12.77;46.02;102475.16;4465406;32;20096;-75
2021/03/05 10:24:16;;;;;;;37.00;13.15;;;;;;;12.29;46.82;102488.28;4463032;32;20032;-74
2021/03/05 10:27:10;;;;;;;25.58;12.40;;;;;;;12.19;46.32;102475.81;4454646;32;20453;-78
2021/03/05 10:29:38;;;;;;;17.77;6.20;;;;;;;11.90;46.14;102488.38;4466677;32;20072;-74
2021/03/05 10:35:04;;;;;;;13.00;6.10;;;;;;;11.94;43.65;102500.47;3982920;32;15022485;-75
2021/03/05 10:37:31;;;;;;;28.45;4.30;;;;;;;11.94;43.65;102500.47;4414787;32;20037;-74
2021/03/05 10:39:56;;;;;;;15.10;5.15;;;;;;;11.66;44.42;102492.84;4410082;32;20082;-76
2021/03/05 10:42:24;;;;;;;12.75;4.47;;;;;;;11.72;45.55;102494.03;4426134;32;20571;-75
2021/03/05 10:44:51;;;;;;;17.12;5.85;;;;;;;11.57;46.56;102500.06;4428967;32;20059;-73
2021/03/05 10:47:19;;;;;;;13.20;5.25;;;;;;;11.61;46.21;102495.25;4419082;32;20033;-76
2021/03/05 10:49:46;;;;;;;14.27;7.40;;;;;;;11.49;45.78;102501.28;4416101;32;20030;-74
2021/03/05 10:52:13;;;;;;;11.40;4.15;;;;;;;11.39;45.01;102499.25;4417110;32;20717;-75
2021/03/05 10:54:39;;;;;;;19.27;11.82;;;;;;;11.18;44.99;102500.06;4423782;32;20064;-77
2021/03/05 10:57:09;;;;;;;7.18;3.10;;;;;;;11.05;45.33;102504.44;4422506;32;20061;-77
2021/03/05 10:59:35;;;;;;;19.50;5.93;;;;;;;10.84;46.08;102489.50;4423348;32;20052;-77
2021/03/05 11:02:01;;;;;;;15.27;4.70;;;;;;;10.45;47.83;102499.81;4410588;32;20312;-76
2021/03/05 11:04:27;;;;;;;22.02;8.02;;;;;;;10.66;47.86;102511.97;4408454;32;20160;-78
2021/03/05 11:06:53;;;;;;;32.60;6.87;;;;;;;10.58;48.20;102513.16;4405912;32;20056;-78
2021/03/05 11:09:20;;;;;;;23.15;8.15;;;;;;;10.55;48.75;102510.34;4406285;32;20051;-78
2021/03/05 11:11:46;;;;;;;18.67;5.30;;;;;;;10.69;48.95;102516.00;4400123;32;20046;-77
2021/03/05 11:14:12;;;;;;;15.20;3.92;;;;;;;10.69;49.10;102508.37;4413886;32;20073;-77
2021/03/05 11:16:38;;;;;;;9.57;2.25;;;;;;;10.59;49.47;102508.34;4404929;32;20088;-77
2021/03/05 11:19:05;;;;;;;14.87;3.42;;;;;;;10.53;49.48;102510.72;4390114;32;20105;-76
2021/03/05 11:21:31;;;;;;;20.00;3.20;;;;;;;10.61;49.44;102511.56;4405215;32;20030;-77
2021/03/05 11:23:58;;;;;;;13.95;3.78;;;;;;;11.00;48.38;102518.13;4421114;32;20057;-78
2021/03/05 11:26:27;;;;;;;10.15;3.37;;;;;;;10.95;47.23;102515.69;4400458;32;20113;-78
2021/03/05 11:28:54;;;;;;;23.08;3.87;;;;;;;11.22;46.28;102520.59;4415706;32;20061;-77
2021/03/05 11:31:21;;;;;;;13.25;2.90;;;;;;;11.54;46.03;102526.25;4402300;32;20064;-76
2021/03/05 11:33:47;;;;;;;16.20;3.72;;;;;;;11.69;45.12;102527.91;4415678;32;20042;-76
2021/03/05 11:36:15;;;;;;;38.80;8.25;;;;;;;11.77;44.79;102527.50;4401502;32;20045;-78
2021/03/05 11:38:41;;;;;;;12.68;3.47;;;;;;;11.95;44.26;102533.94;4413970;32;20099;-77
2021/03/05 11:41:08;;;;;;;18.67;4.35;;;;;;;12.01;42.27;102531.50;4416659;32;20044;-76
2021/03/05 11:43:36;;;;;;;18.37;3.97;;;;;;;11.88;41.24;102535.97;4409821;32;20053;-75
2021/03/05 11:46:01;;;;;;;11.02;2.70;;;;;;;11.90;41.49;102537.16;4407935;32;20074;-77
2021/03/05 11:48:27;;;;;;;30.25;4.40;;;;;;;11.87;41.97;102537.16;4401059;32;20070;-76
2021/03/05 11:50:52;;;;;;;10.27;1.52;;;;;;;11.69;44.07;102533.56;4404952;32;20053;-75
2021/03/05 11:53:18;;;;;;;5.00;1.45;;;;;;;11.35;45.21;102540.75;4406806;32;20050;-75
2021/03/05 11:55:44;;;;;;;8.10;1.25;;;;;;;10.49;46.82;102526.78;4405533;32;20048;-75
2021/03/05 11:58:10;;;;;;;6.55;1.80;;;;;;;10.93;46.68;102543.47;4396651;32;20350;-75
2021/03/05 12:00:35;;;;;;;11.02;3.50;;;;;;;11.13;46.49;102533.44;4404569;32;20038;-76
2021/03/05 12:03:01;;;;;;;12.02;3.10;;;;;;;11.47;45.96;102527.06;4389179;32;20085;-76
2021/03/05 12:05:27;;;;;;;15.35;3.22;;;;;;;11.61;45.38;102529.06;4405845;32;20069;-76
2021/03/05 12:07:53;;;;;;;7.93;2.35;;;;;;;11.76;45.09;102520.22;4405925;32;20091;-76
2021/03/05 12:10:19;;;;;;;9.27;1.95;;;;;;;11.99;44.17;102536.72;4404926;32;20061;-76
2021/03/05 12:12:44;;;;;;;10.68;1.27;;;;;;;12.16;43.69;102537.91;4401351;32;20027;-76
2021/03/05 12:15:10;;;;;;;6.57;1.00;;;;;;;11.31;44.16;102526.62;4398872;32;20052;-76
2021/03/05 12:17:36;;;;;;;14.87;2.15;;;;;;;11.32;43.96;102525.41;4406080;32;20054;-76
2021/03/05 12:20:03;;;;;;;9.90;1.73;;;;;;;11.25;44.87;102533.06;4389387;32;20061;-76
2021/03/05 12:22:29;;;;;;;17.45;2.40;;;;;;;11.21;45.18;102527.44;4390280;32;20092;-76
2021/03/05 12:24:55;;;;;;;16.30;2.15;;;;;;;11.15;45.20;102526.22;4390935;32;20042;-76
2021/03/05 12:27:22;;;;;;;9.00;2.28;;;;;;;11.06;45.36;102527.78;4404884;32;20081;-76
2021/03/05 12:29:47;;;;;;;12.52;1.80;;;;;;;11.01;45.44;102528.97;4401249;32;20039;-76
2021/03/05 12:32:13;;;;;;;13.65;2.33;;;;;;;10.80;45.36;102523.28;4391863;32;20133;-76
2021/03/05 12:34:39;;;;;;;14.35;2.33;;;;;;;10.75;45.95;102522.88;4405546;32;20109;-76
2021/03/05 12:37:05;;;;;;;6.18;1.70;;;;;;;10.59;46.04;102526.03;4405254;32;20027;-76
2021/03/05 12:39:31;;;;;;;11.30;1.42;;;;;;;10.64;45.35;102520.00;4401531;32;20057;-76
2021/03/05 12:41:56;;;;;;;5.78;1.80;;;;;;;10.56;45.56;102514.75;4389843;32;20042;-76
2021/03/05 12:44:22;;;;;;;10.13;1.83;;;;;;;10.60;46.07;102519.19;4400869;32;20034;-76